sensor_id;sensor_type;location;lat;lon;timestamp;P1;durP1;ratioP1;P2;durP2;ratioP2
46751;SDS011;32497;48.936;9.270;2023-10-08T00:03:00;3.58;;;1.52;;
46751;SDS011;32497;48.936;9.270;2023-10-08T00:08:02;5.32;;;1.67;;
46751;SDS011;32497;48.936;9.270;2023-10-08T00:13:04;6.22;;;1.60;;
46751;SDS011;32497;48.936;9.270;2023-10-08T00:18:06;2.30;;;1.05;;
46751;SDS011;32497;48.936;9.270;2023-10-08T00:23:08;6.30;;;1.27;;
46751;SDS011;32497;48.936;9.270;2023-10-08T00:28:09;2.78;;;1.38;;
46751;SDS011;32497;48.936;9.270;2023-10-08T00:33:12;5.65;;;2.05;;
46751;SDS011;32497;48.936;9.270;2023-10-08T00:38:13;3.45;;;1.60;;
46751;SDS011;32497;48.936;9.270;2023-10-08T00:43:29;1.92;;;1.00;;
46751;SDS011;32497;48.936;9.270;2023-10-08T00:48:32;3.08;;;1.27;;
46751;SDS011;32497;48.936;9.270;2023-10-08T00:53:33;3.03;;;1.38;;
46751;SDS011;32497;48.936;9.270;2023-10-08T00:58:34;2.38;;;1.02;;
46751;SDS011;32497;48.936;9.270;2023-10-08T01:03:37;2.60;;;1.25;;
46751;SDS011;32497;48.936;9.270;2023-10-08T01:08:38;2.97;;;1.10;;
46751;SDS011;32497;48.936;9.270;2023-10-08T01:13:40;3.80;;;1.20;;
46751;SDS011;32497;48.936;9.270;2023-10-08T01:18:42;3.57;;;1.60;;
46751;SDS011;32497;48.936;9.270;2023-10-08T01:23:45;2.35;;;1.13;;
46751;SDS011;32497;48.936;9.270;2023-10-08T01:28:47;3.92;;;1.45;;
46751;SDS011;32497;48.936;9.270;2023-10-08T01:33:48;7.38;;;1.60;;
46751;SDS011;32497;48.936;9.270;2023-10-08T01:38:51;4.47;;;1.38;;
46751;SDS011;32497;48.936;9.270;2023-10-08T01:43:52;2.40;;;1.02;;
46751;SDS011;32497;48.936;9.270;2023-10-08T01:48:54;2.83;;;1.27;;
46751;SDS011;32497;48.936;9.270;2023-10-08T01:53:57;4.45;;;1.17;;
46751;SDS011;32497;48.936;9.270;2023-10-08T01:58:58;2.72;;;1.10;;
46751;SDS011;32497;48.936;9.270;2023-10-08T02:03:59;2.53;;;0.97;;
46751;SDS011;32497;48.936;9.270;2023-10-08T02:09:02;3.72;;;1.20;;
46751;SDS011;32497;48.936;9.270;2023-10-08T02:14:04;2.90;;;1.48;;
46751;SDS011;32497;48.936;9.270;2023-10-08T02:19:05;2.50;;;1.20;;
46751;SDS011;32497;48.936;9.270;2023-10-08T02:24:08;4.67;;;1.03;;
46751;SDS011;32497;48.936;9.270;2023-10-08T02:29:09;3.50;;;0.77;;
46751;SDS011;32497;48.936;9.270;2023-10-08T02:34:10;3.28;;;1.27;;
46751;SDS011;32497;48.936;9.270;2023-10-08T02:39:13;3.33;;;1.17;;
46751;SDS011;32497;48.936;9.270;2023-10-08T02:44:15;2.08;;;1.05;;
46751;SDS011;32497;48.936;9.270;2023-10-08T02:49:17;2.33;;;1.23;;
46751;SDS011;32497;48.936;9.270;2023-10-08T02:54:21;2.55;;;0.85;;
46751;SDS011;32497;48.936;9.270;2023-10-08T02:59:23;4.10;;;1.23;;
46751;SDS011;32497;48.936;9.270;2023-10-08T03:04:24;4.13;;;1.00;;
46751;SDS011;32497;48.936;9.270;2023-10-08T03:09:27;3.67;;;1.10;;
46751;SDS011;32497;48.936;9.270;2023-10-08T03:14:28;4.70;;;1.40;;
46751;SDS011;32497;48.936;9.270;2023-10-08T03:19:29;3.57;;;1.03;;
46751;SDS011;32497;48.936;9.270;2023-10-08T03:24:32;2.63;;;1.10;;
46751;SDS011;32497;48.936;9.270;2023-10-08T03:29:33;2.70;;;1.00;;
46751;SDS011;32497;48.936;9.270;2023-10-08T03:34:34;3.67;;;1.20;;
46751;SDS011;32497;48.936;9.270;2023-10-08T03:39:37;6.27;;;1.10;;
46751;SDS011;32497;48.936;9.270;2023-10-08T03:44:38;3.33;;;1.10;;
46751;SDS011;32497;48.936;9.270;2023-10-08T03:49:39;6.27;;;1.10;;
46751;SDS011;32497;48.936;9.270;2023-10-08T03:54:41;5.87;;;1.30;;
46751;SDS011;32497;48.936;9.270;2023-10-08T03:59:42;4.40;;;1.50;;
46751;SDS011;32497;48.936;9.270;2023-10-08T04:04:43;3.83;;;0.80;;
46751;SDS011;32497;48.936;9.270;2023-10-08T04:09:46;5.40;;;1.30;;
46751;SDS011;32497;48.936;9.270;2023-10-08T04:14:47;3.70;;;1.00;;
46751;SDS011;32497;48.936;9.270;2023-10-08T04:19:48;2.37;;;1.00;;
46751;SDS011;32497;48.936;9.270;2023-10-08T04:24:50;2.87;;;1.20;;
46751;SDS011;32497;48.936;9.270;2023-10-08T04:29:52;3.97;;;1.37;;
46751;SDS011;32497;48.936;9.270;2023-10-08T04:34:53;2.27;;;1.20;;
46751;SDS011;32497;48.936;9.270;2023-10-08T04:39:55;2.80;;;1.23;;
46751;SDS011;32497;48.936;9.270;2023-10-08T04:44:56;3.57;;;1.27;;
46751;SDS011;32497;48.936;9.270;2023-10-08T04:49:57;3.60;;;1.53;;
46751;SDS011;32497;48.936;9.270;2023-10-08T04:55:00;4.23;;;1.37;;
46751;SDS011;32497;48.936;9.270;2023-10-08T05:00:01;3.73;;;1.70;;
46751;SDS011;32497;48.936;9.270;2023-10-08T05:05:02;4.63;;;1.40;;
46751;SDS011;32497;48.936;9.270;2023-10-08T05:10:06;4.23;;;1.50;;
46751;SDS011;32497;48.936;9.270;2023-10-08T05:15:08;4.17;;;1.20;;
46751;SDS011;32497;48.936;9.270;2023-10-08T05:20:10;2.90;;;1.23;;
46751;SDS011;32497;48.936;9.270;2023-10-08T05:25:12;5.33;;;1.60;;
46751;SDS011;32497;48.936;9.270;2023-10-08T05:30:13;2.53;;;1.40;;
46751;SDS011;32497;48.936;9.270;2023-10-08T05:35:15;2.23;;;1.13;;
46751;SDS011;32497;48.936;9.270;2023-10-08T05:40:17;3.73;;;1.67;;
46751;SDS011;32497;48.936;9.270;2023-10-08T05:45:18;2.90;;;1.20;;
46751;SDS011;32497;48.936;9.270;2023-10-08T05:50:19;4.37;;;1.10;;
46751;SDS011;32497;48.936;9.270;2023-10-08T05:55:22;4.97;;;1.17;;
46751;SDS011;32497;48.936;9.270;2023-10-08T06:00:23;4.97;;;1.57;;
46751;SDS011;32497;48.936;9.270;2023-10-08T06:05:24;4.60;;;1.20;;
46751;SDS011;32497;48.936;9.270;2023-10-08T06:10:27;4.37;;;1.40;;
46751;SDS011;32497;48.936;9.270;2023-10-08T06:15:34;3.37;;;1.13;;
46751;SDS011;32497;48.936;9.270;2023-10-08T06:20:36;6.67;;;1.20;;
46751;SDS011;32497;48.936;9.270;2023-10-08T06:25:38;2.93;;;1.20;;
46751;SDS011;32497;48.936;9.270;2023-10-08T06:30:40;2.53;;;1.10;;
46751;SDS011;32497;48.936;9.270;2023-10-08T06:35:41;2.90;;;1.37;;
46751;SDS011;32497;48.936;9.270;2023-10-08T06:40:44;5.17;;;1.23;;
46751;SDS011;32497;48.936;9.270;2023-10-08T06:45:45;4.97;;;1.60;;
46751;SDS011;32497;48.936;9.270;2023-10-08T06:50:46;3.30;;;1.13;;
46751;SDS011;32497;48.936;9.270;2023-10-08T06:55:50;3.83;;;1.70;;
46751;SDS011;32497;48.936;9.270;2023-10-08T07:00:52;3.63;;;1.17;;
46751;SDS011;32497;48.936;9.270;2023-10-08T07:05:53;4.30;;;1.23;;
46751;SDS011;32497;48.936;9.270;2023-10-08T07:10:56;2.77;;;1.30;;
46751;SDS011;32497;48.936;9.270;2023-10-08T07:15:57;3.10;;;1.30;;
46751;SDS011;32497;48.936;9.270;2023-10-08T07:20:59;3.75;;;1.27;;
46751;SDS011;32497;48.936;9.270;2023-10-08T07:26:02;6.45;;;1.63;;
46751;SDS011;32497;48.936;9.270;2023-10-08T07:31:04;3.25;;;1.30;;
46751;SDS011;32497;48.936;9.270;2023-10-08T07:36:05;4.25;;;1.17;;
46751;SDS011;32497;48.936;9.270;2023-10-08T07:41:07;2.20;;;1.10;;
46751;SDS011;32497;48.936;9.270;2023-10-08T07:46:09;2.90;;;1.15;;
46751;SDS011;32497;48.936;9.270;2023-10-08T07:51:10;2.22;;;0.90;;
46751;SDS011;32497;48.936;9.270;2023-10-08T07:56:15;3.97;;;1.08;;
46751;SDS011;32497;48.936;9.270;2023-10-08T08:01:16;3.15;;;1.13;;
46751;SDS011;32497;48.936;9.270;2023-10-08T08:06:17;2.13;;;0.93;;
46751;SDS011;32497;48.936;9.270;2023-10-08T08:11:21;3.45;;;1.70;;
46751;SDS011;32497;48.936;9.270;2023-10-08T08:16:22;2.97;;;1.45;;
46751;SDS011;32497;48.936;9.270;2023-10-08T08:21:23;5.35;;;1.33;;
46751;SDS011;32497;48.936;9.270;2023-10-08T08:26:25;4.78;;;1.20;;
46751;SDS011;32497;48.936;9.270;2023-10-08T08:31:27;4.15;;;1.20;;
46751;SDS011;32497;48.936;9.270;2023-10-08T08:36:29;1.88;;;1.00;;
46751;SDS011;32497;48.936;9.270;2023-10-08T08:41:32;4.45;;;1.00;;
46751;SDS011;32497;48.936;9.270;2023-10-08T08:46:37;9.15;;;1.58;;
46751;SDS011;32497;48.936;9.270;2023-10-08T08:51:38;2.22;;;0.98;;
46751;SDS011;32497;48.936;9.270;2023-10-08T08:56:41;2.88;;;1.25;;
46751;SDS011;32497;48.936;9.270;2023-10-08T09:01:44;2.20;;;0.95;;
46751;SDS011;32497;48.936;9.270;2023-10-08T09:06:45;1.65;;;1.00;;
46751;SDS011;32497;48.936;9.270;2023-10-08T09:11:48;1.92;;;1.20;;
46751;SDS011;32497;48.936;9.270;2023-10-08T09:16:49;2.10;;;1.35;;
46751;SDS011;32497;48.936;9.270;2023-10-08T09:21:59;4.28;;;1.73;;
46751;SDS011;32497;48.936;9.270;2023-10-08T09:27:02;2.08;;;1.10;;
46751;SDS011;32497;48.936;9.270;2023-10-08T09:32:04;2.53;;;1.33;;
46751;SDS011;32497;48.936;9.270;2023-10-08T09:37:05;3.03;;;1.33;;
46751;SDS011;32497;48.936;9.270;2023-10-08T09:42:08;3.03;;;1.55;;
46751;SDS011;32497;48.936;9.270;2023-10-08T09:47:11;5.03;;;1.40;;
46751;SDS011;32497;48.936;9.270;2023-10-08T09:52:16;4.68;;;1.48;;
46751;SDS011;32497;48.936;9.270;2023-10-08T09:57:25;3.13;;;1.40;;
46751;SDS011;32497;48.936;9.270;2023-10-08T10:02:26;3.83;;;1.52;;
46751;SDS011;32497;48.936;9.270;2023-10-08T10:07:27;2.88;;;1.40;;
46751;SDS011;32497;48.936;9.270;2023-10-08T10:12:32;2.78;;;1.42;;
46751;SDS011;32497;48.936;9.270;2023-10-08T10:17:33;3.33;;;1.45;;
46751;SDS011;32497;48.936;9.270;2023-10-08T10:22:36;3.15;;;1.23;;
46751;SDS011;32497;48.936;9.270;2023-10-08T10:27:39;1.70;;;1.05;;
46751;SDS011;32497;48.936;9.270;2023-10-08T10:32:41;2.65;;;1.27;;
46751;SDS011;32497;48.936;9.270;2023-10-08T10:37:47;2.78;;;1.20;;
46751;SDS011;32497;48.936;9.270;2023-10-08T10:42:50;3.08;;;1.35;;
46751;SDS011;32497;48.936;9.270;2023-10-08T10:47:52;4.13;;;1.30;;
46751;SDS011;32497;48.936;9.270;2023-10-08T10:52:53;2.72;;;1.48;;
46751;SDS011;32497;48.936;9.270;2023-10-08T10:57:56;2.63;;;1.25;;
46751;SDS011;32497;48.936;9.270;2023-10-08T11:02:58;2.78;;;1.20;;
46751;SDS011;32497;48.936;9.270;2023-10-08T11:08:01;3.60;;;1.30;;
46751;SDS011;32497;48.936;9.270;2023-10-08T11:13:03;2.45;;;1.20;;
46751;SDS011;32497;48.936;9.270;2023-10-08T11:18:06;3.67;;;1.40;;
46751;SDS011;32497;48.936;9.270;2023-10-08T11:23:08;3.95;;;1.45;;
46751;SDS011;32497;48.936;9.270;2023-10-08T11:28:10;2.70;;;1.25;;
46751;SDS011;32497;48.936;9.270;2023-10-08T11:33:12;6.45;;;1.58;;
46751;SDS011;32497;48.936;9.270;2023-10-08T11:38:14;3.60;;;1.20;;
46751;SDS011;32497;48.936;9.270;2023-10-08T11:43:16;2.40;;;1.20;;
46751;SDS011;32497;48.936;9.270;2023-10-08T11:48:17;2.88;;;1.50;;
46751;SDS011;32497;48.936;9.270;2023-10-08T11:53:18;4.32;;;1.50;;
46751;SDS011;32497;48.936;9.270;2023-10-08T11:58:21;3.78;;;1.80;;
46751;SDS011;32497;48.936;9.270;2023-10-08T12:03:22;2.80;;;1.73;;
46751;SDS011;32497;48.936;9.270;2023-10-08T12:08:23;3.47;;;1.55;;
46751;SDS011;32497;48.936;9.270;2023-10-08T12:13:25;4.68;;;1.60;;
46751;SDS011;32497;48.936;9.270;2023-10-08T12:18:26;2.60;;;1.15;;
46751;SDS011;32497;48.936;9.270;2023-10-08T12:23:27;3.72;;;1.40;;
46751;SDS011;32497;48.936;9.270;2023-10-08T12:28:31;5.00;;;1.77;;
46751;SDS011;32497;48.936;9.270;2023-10-08T12:33:32;2.85;;;1.45;;
46751;SDS011;32497;48.936;9.270;2023-10-08T12:38:33;2.80;;;1.42;;
46751;SDS011;32497;48.936;9.270;2023-10-08T12:43:36;4.85;;;1.48;;
46751;SDS011;32497;48.936;9.270;2023-10-08T12:48:37;5.50;;;2.08;;
46751;SDS011;32497;48.936;9.270;2023-10-08T12:53:38;3.42;;;1.35;;
46751;SDS011;32497;48.936;9.270;2023-10-08T12:58:42;3.28;;;1.98;;
46751;SDS011;32497;48.936;9.270;2023-10-08T13:03:43;3.03;;;2.08;;
46751;SDS011;32497;48.936;9.270;2023-10-08T13:08:45;2.38;;;1.70;;
46751;SDS011;32497;48.936;9.270;2023-10-08T13:13:47;3.58;;;2.00;;
46751;SDS011;32497;48.936;9.270;2023-10-08T13:18:49;2.05;;;1.52;;
46751;SDS011;32497;48.936;9.270;2023-10-08T13:23:51;2.85;;;1.85;;
46751;SDS011;32497;48.936;9.270;2023-10-08T13:28:54;3.33;;;1.80;;
46751;SDS011;32497;48.936;9.270;2023-10-08T13:33:55;3.85;;;1.60;;
46751;SDS011;32497;48.936;9.270;2023-10-08T13:38:56;4.78;;;1.70;;
46751;SDS011;32497;48.936;9.270;2023-10-08T13:43:59;6.28;;;1.73;;
46751;SDS011;32497;48.936;9.270;2023-10-08T13:49:00;3.33;;;2.10;;
46751;SDS011;32497;48.936;9.270;2023-10-08T13:54:01;2.92;;;1.90;;
46751;SDS011;32497;48.936;9.270;2023-10-08T13:59:04;3.90;;;1.95;;
46751;SDS011;32497;48.936;9.270;2023-10-08T14:04:05;3.25;;;1.65;;
46751;SDS011;32497;48.936;9.270;2023-10-08T14:09:07;3.85;;;1.95;;
46751;SDS011;32497;48.936;9.270;2023-10-08T14:14:10;2.38;;;1.60;;
46751;SDS011;32497;48.936;9.270;2023-10-08T14:19:11;3.10;;;1.75;;
46751;SDS011;32497;48.936;9.270;2023-10-08T14:24:13;3.40;;;1.88;;
46751;SDS011;32497;48.936;9.270;2023-10-08T14:29:16;3.03;;;1.70;;
46751;SDS011;32497;48.936;9.270;2023-10-08T14:34:17;2.95;;;1.58;;
46751;SDS011;32497;48.936;9.270;2023-10-08T14:39:18;3.67;;;1.90;;
46751;SDS011;32497;48.936;9.270;2023-10-08T14:44:21;2.63;;;1.73;;
46751;SDS011;32497;48.936;9.270;2023-10-08T14:49:22;4.60;;;1.70;;
46751;SDS011;32497;48.936;9.270;2023-10-08T14:54:23;3.13;;;1.95;;
46751;SDS011;32497;48.936;9.270;2023-10-08T14:59:25;2.60;;;1.40;;
46751;SDS011;32497;48.936;9.270;2023-10-08T15:04:26;2.05;;;1.55;;
46751;SDS011;32497;48.936;9.270;2023-10-08T15:09:28;2.63;;;1.15;;
46751;SDS011;32497;48.936;9.270;2023-10-08T15:14:30;4.68;;;1.92;;
46751;SDS011;32497;48.936;9.270;2023-10-08T15:19:31;5.28;;;2.03;;
46751;SDS011;32497;48.936;9.270;2023-10-08T15:24:32;2.80;;;1.60;;
46751;SDS011;32497;48.936;9.270;2023-10-08T15:29:35;5.03;;;1.77;;
46751;SDS011;32497;48.936;9.270;2023-10-08T15:34:36;3.22;;;1.55;;
46751;SDS011;32497;48.936;9.270;2023-10-08T15:39:37;1.88;;;1.35;;
46751;SDS011;32497;48.936;9.270;2023-10-08T15:44:39;5.07;;;1.45;;
46751;SDS011;32497;48.936;9.270;2023-10-08T15:49:40;3.28;;;1.52;;
46751;SDS011;32497;48.936;9.270;2023-10-08T15:54:41;4.30;;;1.52;;
46751;SDS011;32497;48.936;9.270;2023-10-08T15:59:44;3.03;;;1.38;;
46751;SDS011;32497;48.936;9.270;2023-10-08T16:04:45;5.28;;;1.90;;
46751;SDS011;32497;48.936;9.270;2023-10-08T16:09:46;4.68;;;1.90;;
46751;SDS011;32497;48.936;9.270;2023-10-08T16:14:49;3.60;;;1.55;;
46751;SDS011;32497;48.936;9.270;2023-10-08T16:19:50;3.45;;;1.60;;
46751;SDS011;32497;48.936;9.270;2023-10-08T16:24:51;3.53;;;1.55;;
46751;SDS011;32497;48.936;9.270;2023-10-08T16:29:53;2.53;;;1.70;;
46751;SDS011;32497;48.936;9.270;2023-10-08T16:34:55;2.65;;;1.45;;
46751;SDS011;32497;48.936;9.270;2023-10-08T16:39:56;3.83;;;1.73;;
46751;SDS011;32497;48.936;9.270;2023-10-08T16:44:58;6.72;;;3.28;;
46751;SDS011;32497;48.936;9.270;2023-10-08T16:49:59;6.93;;;3.15;;
46751;SDS011;32497;48.936;9.270;2023-10-08T16:55:01;17.67;;;3.90;;
46751;SDS011;32497;48.936;9.270;2023-10-08T17:00:04;15.55;;;7.10;;
46751;SDS011;32497;48.936;9.270;2023-10-08T17:05:06;16.25;;;7.80;;
46751;SDS011;32497;48.936;9.270;2023-10-08T17:10:08;10.15;;;5.15;;
46751;SDS011;32497;48.936;9.270;2023-10-08T17:15:11;5.20;;;1.90;;
46751;SDS011;32497;48.936;9.270;2023-10-08T17:20:12;3.97;;;2.00;;
46751;SDS011;32497;48.936;9.270;2023-10-08T17:25:14;7.80;;;3.03;;
46751;SDS011;32497;48.936;9.270;2023-10-08T17:30:16;4.45;;;1.70;;
46751;SDS011;32497;48.936;9.270;2023-10-08T17:35:18;4.50;;;1.50;;
46751;SDS011;32497;48.936;9.270;2023-10-08T17:40:22;5.10;;;2.00;;
46751;SDS011;32497;48.936;9.270;2023-10-08T17:45:25;4.55;;;1.80;;
46751;SDS011;32497;48.936;9.270;2023-10-08T17:50:26;4.75;;;1.52;;
46751;SDS011;32497;48.936;9.270;2023-10-08T17:55:27;4.25;;;2.03;;
46751;SDS011;32497;48.936;9.270;2023-10-08T18:00:30;6.07;;;1.42;;
46751;SDS011;32497;48.936;9.270;2023-10-08T18:05:31;4.03;;;1.60;;
46751;SDS011;32497;48.936;9.270;2023-10-08T18:10:32;2.92;;;1.50;;
46751;SDS011;32497;48.936;9.270;2023-10-08T18:15:34;4.07;;;1.60;;
46751;SDS011;32497;48.936;9.270;2023-10-08T18:20:36;3.08;;;1.42;;
46751;SDS011;32497;48.936;9.270;2023-10-08T18:25:37;6.38;;;1.77;;
46751;SDS011;32497;48.936;9.270;2023-10-08T18:30:39;3.47;;;1.48;;
46751;SDS011;32497;48.936;9.270;2023-10-08T18:35:40;7.93;;;2.10;;
46751;SDS011;32497;48.936;9.270;2023-10-08T18:40:41;4.28;;;2.03;;
46751;SDS011;32497;48.936;9.270;2023-10-08T18:45:44;3.50;;;1.80;;
46751;SDS011;32497;48.936;9.270;2023-10-08T18:50:45;4.97;;;1.88;;
46751;SDS011;32497;48.936;9.270;2023-10-08T18:55:46;5.47;;;1.67;;
46751;SDS011;32497;48.936;9.270;2023-10-08T19:00:49;5.22;;;1.77;;
46751;SDS011;32497;48.936;9.270;2023-10-08T19:05:50;4.13;;;1.77;;
46751;SDS011;32497;48.936;9.270;2023-10-08T19:10:51;3.78;;;1.50;;
46751;SDS011;32497;48.936;9.270;2023-10-08T19:15:54;5.55;;;1.83;;
46751;SDS011;32497;48.936;9.270;2023-10-08T19:20:55;3.85;;;1.67;;
46751;SDS011;32497;48.936;9.270;2023-10-08T19:25:56;5.50;;;1.90;;
46751;SDS011;32497;48.936;9.270;2023-10-08T19:31:00;10.70;;;1.60;;
46751;SDS011;32497;48.936;9.270;2023-10-08T19:36:01;3.33;;;1.40;;
46751;SDS011;32497;48.936;9.270;2023-10-08T19:41:02;5.38;;;1.98;;
46751;SDS011;32497;48.936;9.270;2023-10-08T19:46:10;5.85;;;1.88;;
46751;SDS011;32497;48.936;9.270;2023-10-08T19:51:11;6.78;;;1.70;;
46751;SDS011;32497;48.936;9.270;2023-10-08T19:56:13;4.15;;;2.00;;
46751;SDS011;32497;48.936;9.270;2023-10-08T20:01:15;4.25;;;1.85;;
46751;SDS011;32497;48.936;9.270;2023-10-08T20:06:17;5.60;;;2.20;;
46751;SDS011;32497;48.936;9.270;2023-10-08T20:11:18;6.15;;;1.92;;
46751;SDS011;32497;48.936;9.270;2023-10-08T20:16:20;3.55;;;1.50;;
46751;SDS011;32497;48.936;9.270;2023-10-08T20:21:21;4.45;;;1.85;;
46751;SDS011;32497;48.936;9.270;2023-10-08T20:26:23;6.85;;;2.13;;
46751;SDS011;32497;48.936;9.270;2023-10-08T20:31:25;4.60;;;1.77;;
46751;SDS011;32497;48.936;9.270;2023-10-08T20:36:26;3.67;;;1.70;;
46751;SDS011;32497;48.936;9.270;2023-10-08T20:41:27;4.57;;;1.80;;
46751;SDS011;32497;48.936;9.270;2023-10-08T20:46:30;6.25;;;1.85;;
46751;SDS011;32497;48.936;9.270;2023-10-08T20:51:31;4.57;;;2.03;;
46751;SDS011;32497;48.936;9.270;2023-10-08T20:56:32;4.95;;;2.05;;
46751;SDS011;32497;48.936;9.270;2023-10-08T21:01:34;5.07;;;1.83;;
46751;SDS011;32497;48.936;9.270;2023-10-08T21:06:35;5.35;;;1.80;;
46751;SDS011;32497;48.936;9.270;2023-10-08T21:11:37;6.05;;;2.20;;
46751;SDS011;32497;48.936;9.270;2023-10-08T21:16:39;6.78;;;1.83;;
46751;SDS011;32497;48.936;9.270;2023-10-08T21:21:40;6.80;;;2.08;;
46751;SDS011;32497;48.936;9.270;2023-10-08T21:26:41;4.63;;;2.17;;
46751;SDS011;32497;48.936;9.270;2023-10-08T21:31:44;4.38;;;1.92;;
46751;SDS011;32497;48.936;9.270;2023-10-08T21:36:45;4.80;;;2.10;;
46751;SDS011;32497;48.936;9.270;2023-10-08T21:41:46;5.78;;;2.10;;
46751;SDS011;32497;48.936;9.270;2023-10-08T21:46:48;3.55;;;1.90;;
46751;SDS011;32497;48.936;9.270;2023-10-08T21:51:49;3.63;;;1.75;;
46751;SDS011;32497;48.936;9.270;2023-10-08T21:56:50;7.55;;;1.95;;
46751;SDS011;32497;48.936;9.270;2023-10-08T22:01:53;5.85;;;1.83;;
46751;SDS011;32497;48.936;9.270;2023-10-08T22:06:54;5.78;;;2.13;;
46751;SDS011;32497;48.936;9.270;2023-10-08T22:17:04;4.88;;;2.25;;
46751;SDS011;32497;48.936;9.270;2023-10-08T22:22:06;4.85;;;2.38;;
46751;SDS011;32497;48.936;9.270;2023-10-08T22:27:07;5.73;;;2.17;;
46751;SDS011;32497;48.936;9.270;2023-10-08T22:32:09;5.43;;;1.95;;
46751;SDS011;32497;48.936;9.270;2023-10-08T22:37:10;4.22;;;2.30;;
46751;SDS011;32497;48.936;9.270;2023-10-08T22:42:12;8.05;;;2.40;;
46751;SDS011;32497;48.936;9.270;2023-10-08T22:47:14;6.53;;;1.90;;
46751;SDS011;32497;48.936;9.270;2023-10-08T22:52:15;9.13;;;2.75;;
46751;SDS011;32497;48.936;9.270;2023-10-08T22:57:16;5.10;;;2.00;;
46751;SDS011;32497;48.936;9.270;2023-10-08T23:02:19;5.57;;;2.00;;
46751;SDS011;32497;48.936;9.270;2023-10-08T23:07:20;5.03;;;2.08;;
46751;SDS011;32497;48.936;9.270;2023-10-08T23:12:21;6.55;;;2.28;;
46751;SDS011;32497;48.936;9.270;2023-10-08T23:17:23;4.93;;;2.00;;
46751;SDS011;32497;48.936;9.270;2023-10-08T23:22:24;6.00;;;2.30;;
46751;SDS011;32497;48.936;9.270;2023-10-08T23:27:25;6.25;;;2.25;;
46751;SDS011;32497;48.936;9.270;2023-10-08T23:32:28;6.40;;;2.27;;
46751;SDS011;32497;48.936;9.270;2023-10-08T23:37:29;6.13;;;2.33;;
46751;SDS011;32497;48.936;9.270;2023-10-08T23:42:30;5.10;;;2.50;;
46751;SDS011;32497;48.936;9.270;2023-10-08T23:47:32;5.53;;;1.90;;
46751;SDS011;32497;48.936;9.270;2023-10-08T23:52:34;5.33;;;2.30;;
46751;SDS011;32497;48.936;9.270;2023-10-08T23:57:35;4.13;;;2.40;;
